createdAt,value
2022-10-23T00:02:14.245Z,7.47
2022-10-23T00:05:56.253Z,4.75
2022-10-23T00:09:38.731Z,4.65
2022-10-23T00:13:20.669Z,4.07
2022-10-23T00:17:02.670Z,4.60
2022-10-23T00:20:44.646Z,4.75
2022-10-23T00:24:26.652Z,4.75
2022-10-23T00:28:08.679Z,4.68
2022-10-23T00:31:50.586Z,5.40
2022-10-23T00:35:32.564Z,4.15
2022-10-23T00:39:14.505Z,3.60
2022-10-23T00:42:56.514Z,3.45
2022-10-23T00:46:39.333Z,3.13
2022-10-23T00:50:25.430Z,3.28
2022-10-23T00:54:24.830Z,3.28
2022-10-23T00:58:07.787Z,2.88
2022-10-23T01:01:49.804Z,3.00
2022-10-23T01:05:41.461Z,3.50
2022-10-23T01:09:39.467Z,3.45
2022-10-23T01:13:50.040Z,3.58
2022-10-23T01:17:40.805Z,4.22
2022-10-23T01:21:28.402Z,5.90
2022-10-23T01:25:28.212Z,4.03
2022-10-23T01:29:36.786Z,3.83
2022-10-23T01:33:31.265Z,4.38
2022-10-23T01:37:15.899Z,4.20
2022-10-23T01:41:18.494Z,4.25
2022-10-23T01:45:24.298Z,5.75
2022-10-23T01:49:10.905Z,4.30
2022-10-23T01:52:52.968Z,4.30
2022-10-23T01:56:42.443Z,4.65
2022-10-23T02:00:24.374Z,4.85
2022-10-23T02:04:09.856Z,4.63
2022-10-23T02:07:52.380Z,5.38
2022-10-23T02:11:51.085Z,4.45
2022-10-23T02:15:46.098Z,4.28
2022-10-23T02:19:38.082Z,5.82
2022-10-23T02:23:27.991Z,3.92
2022-10-23T02:27:30.357Z,3.83
2022-10-23T02:31:16.192Z,4.75
2022-10-23T02:34:58.200Z,4.78
2022-10-23T02:38:42.881Z,5.00
2022-10-23T02:42:57.696Z,5.68
2022-10-23T02:46:56.382Z,6.45
2022-10-23T02:51:17.010Z,6.15
2022-10-23T02:55:07.561Z,6.40
2022-10-23T02:59:17.987Z,6.65
2022-10-23T03:03:04.134Z,5.60
2022-10-23T03:06:46.708Z,5.55
2022-10-23T03:10:28.677Z,5.35
2022-10-23T03:14:12.697Z,5.65
2022-10-23T03:17:54.674Z,5.47
2022-10-23T03:21:36.770Z,4.80
2022-10-23T03:25:18.923Z,4.60
2022-10-23T03:29:00.970Z,4.60
2022-10-23T03:32:43.307Z,4.30
2022-10-23T03:36:25.679Z,4.97
2022-10-23T03:40:08.304Z,4.55
2022-10-23T03:43:50.417Z,4.30
2022-10-23T03:47:35.340Z,4.60
2022-10-23T03:51:17.525Z,4.75
2022-10-23T03:54:59.587Z,4.38
2022-10-23T03:58:41.550Z,4.53
2022-10-23T04:02:23.586Z,3.63
2022-10-23T04:06:06.045Z,3.25
2022-10-23T04:09:48.100Z,3.30
2022-10-23T04:13:30.499Z,3.05
2022-10-23T04:17:12.495Z,2.83
2022-10-23T04:20:54.748Z,3.20
2022-10-23T04:24:36.868Z,3.30
2022-10-23T04:28:18.998Z,3.03
2022-10-23T04:32:00.970Z,2.60
2022-10-23T04:35:46.048Z,3.55
2022-10-23T04:39:28.167Z,3.05
2022-10-23T04:43:10.330Z,3.30
2022-10-23T04:46:52.358Z,3.35
2022-10-23T04:50:34.447Z,3.13
2022-10-23T04:54:16.521Z,3.47
2022-10-23T04:57:58.627Z,2.72
2022-10-23T05:01:43.443Z,2.67
2022-10-23T05:05:25.755Z,2.78
2022-10-23T05:09:07.849Z,3.40
2022-10-23T05:12:50.008Z,2.50
2022-10-23T05:17:02.701Z,3.03
2022-10-23T05:20:47.098Z,2.60
2022-10-23T05:24:29.987Z,2.80
2022-10-23T05:28:12.222Z,3.28
2022-10-23T05:31:59.837Z,3.72
2022-10-23T05:35:44.414Z,1.80
2022-10-23T05:39:27.201Z,0.90
2022-10-23T05:43:09.264Z,1.10
2022-10-23T05:46:51.154Z,1.25
2022-10-23T05:50:37.006Z,1.30
2022-10-23T05:54:19.688Z,1.20
2022-10-23T05:58:05.493Z,0.90
2022-10-23T06:01:47.714Z,0.80
2022-10-23T06:05:30.074Z,0.77
2022-10-23T06:09:12.550Z,1.13
2022-10-23T06:12:55.161Z,1.00
2022-10-23T06:16:37.338Z,1.25
2022-10-23T06:20:19.346Z,1.52
2022-10-23T06:24:01.369Z,1.10
2022-10-23T06:27:43.352Z,1.05
2022-10-23T06:31:27.760Z,0.82
2022-10-23T06:35:09.743Z,0.98
2022-10-23T06:38:52.326Z,1.20
2022-10-23T06:42:34.680Z,1.40
2022-10-23T06:46:17.054Z,1.60
2022-10-23T06:49:58.866Z,0.88
2022-10-23T06:53:41.486Z,0.90
2022-10-23T06:57:23.427Z,0.85
2022-10-23T07:01:08.964Z,0.60
2022-10-23T07:04:51.030Z,0.75
2022-10-23T07:08:33.166Z,0.82
2022-10-23T07:12:15.025Z,1.02
2022-10-23T07:15:56.953Z,1.70
2022-10-23T07:19:38.789Z,1.45
2022-10-23T07:23:20.580Z,1.00
2022-10-23T07:27:03.119Z,1.00
2022-10-23T07:30:44.947Z,1.30
2022-10-23T07:34:27.734Z,1.27
2022-10-23T07:38:09.670Z,1.90
2022-10-23T07:41:51.573Z,1.20
2022-10-23T07:45:33.391Z,1.13
2022-10-23T07:49:15.267Z,1.65
2022-10-23T07:52:58.605Z,1.67
2022-10-23T07:56:40.585Z,1.50
2022-10-23T08:04:10.855Z,1.40
2022-10-23T08:07:52.678Z,1.35
2022-10-23T08:11:35.833Z,1.00
2022-10-23T08:15:18.239Z,0.75
2022-10-23T08:19:00.971Z,0.55
2022-10-23T08:22:43.082Z,0.82
2022-10-23T08:26:26.911Z,1.20
2022-10-23T08:30:09.296Z,0.82
2022-10-23T08:33:51.341Z,0.90
2022-10-23T08:37:33.346Z,1.00
2022-10-23T08:41:26.907Z,0.95
2022-10-23T08:45:29.542Z,0.80
2022-10-23T08:49:43.570Z,0.80
2022-10-23T08:53:27.840Z,1.58
2022-10-23T08:57:18.580Z,1.60
2022-10-23T09:01:00.738Z,1.20
2022-10-23T09:04:47.455Z,1.10
2022-10-23T09:08:56.449Z,1.48
2022-10-23T09:12:39.677Z,1.00
2022-10-23T09:16:35.354Z,1.75
2022-10-23T09:20:26.519Z,1.02
2022-10-23T09:24:17.930Z,1.17
2022-10-23T09:28:05.261Z,1.00
2022-10-23T09:31:52.614Z,3.25
2022-10-23T09:35:34.429Z,1.10
2022-10-23T09:39:26.746Z,1.10
2022-10-23T09:43:17.723Z,0.80
2022-10-23T09:47:00.999Z,0.90
2022-10-23T09:50:47.696Z,1.13
2022-10-23T09:54:37.055Z,1.17
2022-10-23T09:58:21.978Z,1.20
2022-10-23T10:02:04.681Z,1.30
2022-10-23T10:05:55.582Z,1.40
2022-10-23T10:09:37.412Z,1.23
2022-10-23T10:13:36.562Z,1.48
2022-10-23T10:17:25.102Z,1.50
2022-10-23T10:21:50.500Z,1.40
2022-10-23T10:25:55.051Z,1.40
2022-10-23T10:29:44.251Z,1.13
2022-10-23T10:34:12.477Z,1.45
2022-10-23T10:38:22.209Z,1.30
2022-10-23T10:42:29.024Z,1.08
2022-10-23T10:46:33.412Z,1.23
2022-10-23T10:50:29.814Z,1.20
2022-10-23T10:54:56.777Z,1.02
2022-10-23T10:58:54.586Z,0.90
2022-10-23T11:02:44.069Z,0.93
2022-10-23T11:06:30.891Z,1.13
2022-10-23T11:10:18.822Z,1.00
2022-10-23T11:17:52.127Z,1.02
2022-10-23T11:21:56.340Z,1.02
2022-10-23T11:26:03.355Z,1.88
2022-10-23T11:30:03.764Z,1.20
2022-10-23T11:33:57.860Z,1.92
2022-10-23T11:37:39.750Z,1.35
2022-10-23T11:41:34.178Z,1.65
2022-10-23T11:45:45.612Z,1.42
2022-10-23T11:49:27.438Z,1.30
2022-10-23T11:53:28.575Z,2.25
2022-10-23T11:57:17.270Z,1.42
2022-10-23T12:01:06.246Z,1.30
2022-10-23T12:04:51.415Z,1.20
2022-10-23T12:08:36.382Z,1.50
2022-10-23T12:12:32.148Z,1.50
2022-10-23T12:16:14.429Z,1.70
2022-10-23T12:20:08.052Z,1.50
2022-10-23T12:24:06.455Z,1.60
2022-10-23T12:28:29.003Z,1.10
2022-10-23T12:32:31.025Z,1.40
2022-10-23T12:36:30.774Z,1.40
2022-10-23T12:40:12.707Z,1.48
2022-10-23T12:44:01.133Z,1.15
2022-10-23T12:47:45.837Z,1.15
2022-10-23T12:51:30.497Z,1.10
2022-10-23T12:55:14.458Z,1.20
2022-10-23T12:59:00.993Z,1.27
2022-10-23T13:02:42.978Z,1.10
2022-10-23T13:06:25.842Z,1.00
2022-10-23T13:10:13.310Z,1.30
2022-10-23T13:13:55.237Z,1.20
2022-10-23T13:17:41.721Z,1.23
2022-10-23T13:21:26.382Z,1.10
2022-10-23T13:25:32.214Z,1.25
2022-10-23T13:37:25.086Z,0.90
2022-10-23T13:41:13.448Z,0.90
2022-10-23T13:44:55.479Z,1.15
2022-10-23T13:48:37.267Z,1.27
2022-10-23T13:52:23.390Z,0.90
2022-10-23T13:56:05.533Z,1.23
2022-10-23T13:59:47.457Z,1.38
2022-10-23T14:03:29.291Z,1.42
2022-10-23T14:07:11.109Z,1.23
2022-10-23T14:10:52.922Z,1.55
2022-10-23T14:14:34.934Z,1.27
2022-10-23T14:18:16.804Z,1.35
2022-10-23T14:21:58.638Z,1.08
2022-10-23T14:25:40.428Z,1.20
2022-10-23T14:29:24.332Z,1.33
2022-10-23T14:33:06.471Z,1.58
2022-10-23T14:36:50.243Z,1.55
2022-10-23T14:40:36.719Z,1.08
2022-10-23T14:44:18.557Z,1.20
2022-10-23T14:48:03.334Z,1.10
2022-10-23T14:51:45.167Z,1.27
2022-10-23T14:55:27.040Z,1.50
2022-10-23T14:59:10.744Z,1.20
2022-10-23T15:02:52.674Z,1.10
2022-10-23T15:06:35.221Z,1.10
2022-10-23T15:14:03.999Z,1.10
2022-10-23T15:17:45.790Z,2.88
2022-10-23T15:21:28.895Z,1.83
2022-10-23T15:25:14.244Z,1.38
2022-10-23T15:29:02.258Z,2.33
2022-10-23T15:32:45.011Z,19.17
2022-10-23T15:36:27.325Z,11.98
2022-10-23T15:40:09.758Z,11.15
2022-10-23T15:43:52.193Z,5.25
2022-10-23T15:47:34.063Z,5.00
2022-10-23T15:51:16.221Z,3.58
2022-10-23T15:54:58.191Z,2.40
2022-10-23T15:58:40.338Z,3.20
2022-10-23T16:02:23.246Z,2.17
2022-10-23T16:06:07.702Z,2.33
2022-10-23T16:09:49.750Z,3.30
2022-10-23T16:13:31.617Z,4.35
2022-10-23T16:21:01.021Z,3.00
2022-10-23T16:24:43.201Z,2.60
2022-10-23T16:28:25.282Z,2.30
2022-10-23T16:32:07.151Z,2.20
2022-10-23T16:35:49.037Z,2.08
2022-10-23T16:39:31.797Z,5.30
2022-10-23T16:43:13.662Z,6.97
2022-10-23T16:46:55.873Z,3.15
2022-10-23T16:50:41.592Z,2.90
2022-10-23T16:54:23.585Z,3.13
2022-10-23T16:58:05.354Z,6.13
2022-10-23T17:01:47.405Z,7.30
2022-10-23T17:05:32.638Z,3.72
2022-10-23T17:09:14.664Z,3.42
2022-10-23T17:12:56.624Z,4.07
2022-10-23T17:16:45.236Z,3.20
2022-10-23T17:20:27.127Z,2.15
2022-10-23T17:24:09.551Z,2.47
2022-10-23T17:27:51.357Z,2.83
2022-10-23T17:31:36.959Z,3.45
2022-10-23T17:35:18.801Z,2.92
2022-10-23T17:39:01.195Z,2.85
2022-10-23T17:42:43.240Z,4.05
2022-10-23T17:46:25.786Z,2.80
2022-10-23T17:50:09.632Z,1.95
2022-10-23T17:53:54.445Z,6.10
2022-10-23T17:57:36.256Z,3.97
2022-10-23T18:01:21.847Z,3.40
2022-10-23T18:05:04.013Z,2.83
2022-10-23T18:08:46.698Z,15.80
2022-10-23T18:12:29.593Z,2.90
2022-10-23T18:16:12.602Z,3.42
2022-10-23T18:19:58.337Z,3.28
2022-10-23T18:23:43.314Z,4.07
2022-10-23T18:27:25.138Z,3.63
2022-10-23T18:31:09.127Z,4.00
2022-10-23T18:34:51.105Z,4.05
2022-10-23T18:38:32.956Z,3.80
2022-10-23T18:42:14.810Z,3.60
2022-10-23T18:45:56.620Z,2.75
2022-10-23T18:49:38.450Z,2.60
2022-10-23T18:53:20.317Z,2.50
2022-10-23T18:57:02.100Z,2.58
2022-10-23T19:00:44.746Z,2.67
2022-10-23T19:04:26.639Z,2.45
2022-10-23T19:08:08.546Z,2.83
2022-10-23T19:11:50.443Z,2.72
2022-10-23T19:15:34.684Z,2.70
2022-10-23T19:19:22.509Z,2.90
2022-10-23T19:23:06.402Z,3.22
2022-10-23T19:26:49.204Z,4.75
2022-10-23T19:30:31.793Z,6.90
2022-10-23T19:34:13.618Z,5.43
2022-10-23T19:37:55.610Z,4.63
2022-10-23T19:41:37.505Z,5.10
2022-10-23T19:45:19.388Z,4.57
2022-10-23T19:49:01.272Z,2.95
2022-10-23T19:52:43.188Z,5.65
2022-10-23T19:56:25.143Z,6.35
2022-10-23T20:00:08.648Z,4.97
2022-10-23T20:03:51.039Z,6.43
2022-10-23T20:07:33.634Z,4.53
2022-10-23T20:11:28.205Z,4.82
2022-10-23T20:15:10.957Z,4.80
2022-10-23T20:18:52.978Z,2.90
2022-10-23T20:22:34.865Z,3.10
2022-10-23T20:26:21.281Z,3.60
2022-10-23T20:30:03.386Z,4.05
2022-10-23T20:33:45.596Z,4.53
2022-10-23T20:37:27.474Z,5.35
2022-10-23T20:41:09.270Z,4.97
2022-10-23T20:44:51.099Z,5.25
2022-10-23T20:48:37.542Z,3.88
2022-10-23T20:52:22.062Z,3.28
2022-10-23T20:56:15.212Z,4.05
2022-10-23T20:59:57.073Z,4.15
2022-10-23T21:03:39.243Z,4.35
2022-10-23T21:07:21.132Z,4.30
2022-10-23T21:11:03.705Z,5.03
2022-10-23T21:14:45.578Z,4.60
2022-10-23T21:18:44.844Z,4.20
2022-10-23T21:22:28.052Z,4.28
2022-10-23T21:26:09.848Z,3.83
2022-10-23T21:29:51.663Z,3.25
2022-10-23T21:33:33.798Z,2.97
2022-10-23T21:37:15.664Z,2.97
2022-10-23T21:41:16.596Z,2.60
2022-10-23T21:44:58.416Z,2.03
2022-10-23T21:48:40.723Z,1.80
2022-10-23T21:52:22.570Z,2.50
2022-10-23T21:56:05.397Z,2.60
2022-10-23T21:59:47.881Z,2.17
2022-10-23T22:03:29.797Z,2.10
2022-10-23T22:07:14.892Z,2.03
2022-10-23T22:10:56.870Z,2.47
2022-10-23T22:14:39.481Z,2.10
2022-10-23T22:18:21.394Z,2.10
2022-10-23T22:22:03.341Z,1.67
2022-10-23T22:25:45.234Z,1.88
2022-10-23T22:29:29.446Z,2.30
2022-10-23T22:33:11.288Z,2.47
2022-10-23T22:36:54.643Z,2.00
2022-10-23T22:40:37.854Z,2.53
2022-10-23T22:44:19.834Z,3.13
2022-10-23T22:48:01.783Z,2.17
2022-10-23T22:51:43.743Z,2.50
2022-10-23T22:55:25.650Z,2.13
2022-10-23T22:59:07.585Z,2.40
2022-10-23T23:02:49.612Z,2.55
2022-10-23T23:06:34.257Z,2.42
2022-10-23T23:10:16.348Z,2.70
2022-10-23T23:13:58.354Z,2.75
2022-10-23T23:17:40.264Z,2.83
2022-10-23T23:21:22.385Z,3.33
2022-10-23T23:25:04.435Z,2.97
2022-10-23T23:28:46.388Z,3.70
2022-10-23T23:32:28.465Z,3.08
2022-10-23T23:36:12.844Z,3.20
2022-10-23T23:39:54.831Z,3.30
2022-10-23T23:43:36.773Z,3.50
2022-10-23T23:47:18.704Z,2.95
2022-10-23T23:51:00.595Z,2.80
2022-10-23T23:54:42.446Z,2.60
2022-10-23T23:58:24.462Z,1.92
